createdAt,value
2022-11-16T00:00:34.366Z,73.40
2022-11-16T00:03:40.726Z,68.80
2022-11-16T00:17:47.361Z,76.40
2022-11-16T00:21:09.134Z,75.10
2022-11-16T00:24:28.225Z,76.00
2022-11-16T00:27:12.930Z,78.60
2022-11-16T00:30:16.072Z,80.70
2022-11-16T00:33:18.313Z,81.00
2022-11-16T00:35:54.981Z,74.30
2022-11-16T00:39:10.908Z,76.20
2022-11-16T00:41:57.528Z,73.80
2022-11-16T00:46:03.738Z,73.00
2022-11-16T00:47:31.290Z,76.30
2022-11-16T00:59:55.258Z,78.20
2022-11-16T01:11:53.385Z,76.70
2022-11-16T01:17:24.967Z,78.20
2022-11-16T01:20:20.409Z,80.70
2022-11-16T01:23:27.272Z,82.60
2022-11-16T01:29:52.278Z,83.00
2022-11-16T01:33:09.959Z,83.10
2022-11-16T01:35:54.730Z,71.90
2022-11-16T01:39:03.472Z,79.90
2022-11-16T01:46:50.110Z,73.90
2022-11-16T01:54:11.677Z,77.80
2022-11-16T01:57:42.825Z,75.90
2022-11-16T02:00:35.981Z,72.90
2022-11-16T02:03:35.091Z,73.80
2022-11-16T02:06:41.806Z,78.80
2022-11-16T02:10:04.145Z,76.30
2022-11-16T02:13:03.015Z,75.10
2022-11-16T02:20:52.819Z,75.90
2022-11-16T02:24:59.198Z,72.60
2022-11-16T02:28:38.878Z,66.70
2022-11-16T02:31:51.569Z,64.50
2022-11-16T02:34:58.298Z,59.70
2022-11-16T02:38:21.941Z,64.10
2022-11-16T02:41:33.938Z,63.00
2022-11-16T02:45:14.618Z,64.20
2022-11-16T02:47:44.164Z,57.90
2022-11-16T02:51:20.232Z,57.50
2022-11-16T02:57:46.309Z,47.90
2022-11-16T03:00:29.017Z,46.70
2022-11-16T03:07:12.799Z,53.70
2022-11-16T03:09:57.013Z,46.10
2022-11-16T03:13:12.740Z,53.20
2022-11-16T03:17:42.300Z,52.50
2022-11-16T03:20:02.755Z,54.90
2022-11-16T03:23:02.168Z,55.00
2022-11-16T03:26:33.442Z,55.30
2022-11-16T03:29:30.936Z,52.10
2022-11-16T03:32:47.971Z,52.40
2022-11-16T03:36:16.868Z,51.10
2022-11-16T03:39:18.901Z,46.50
2022-11-16T03:42:31.699Z,53.90
2022-11-16T03:49:18.207Z,47.00
2022-11-16T03:55:27.904Z,47.60
2022-11-16T03:58:33.132Z,48.20
2022-11-16T04:01:09.622Z,46.40
2022-11-16T04:03:58.617Z,48.40
2022-11-16T04:06:54.576Z,45.40
2022-11-16T04:09:58.166Z,41.50
2022-11-16T04:13:14.301Z,43.10
2022-11-16T04:16:32.256Z,40.70
2022-11-16T04:20:14.340Z,39.20
2022-11-16T04:23:31.476Z,36.40
2022-11-16T04:26:12.034Z,38.70
2022-11-16T04:29:15.174Z,38.90
2022-11-16T04:32:17.179Z,41.10
2022-11-16T04:35:11.268Z,42.20
2022-11-16T04:38:00.383Z,40.50
2022-11-16T04:41:06.825Z,40.20
2022-11-16T04:44:42.381Z,40.30
2022-11-16T04:47:26.255Z,37.10
2022-11-16T04:50:16.288Z,38.60
2022-11-16T04:53:39.196Z,38.80
2022-11-16T04:56:46.659Z,38.30
2022-11-16T05:09:51.884Z,42.30
2022-11-16T05:13:13.102Z,43.90
2022-11-16T05:16:41.866Z,38.70
2022-11-16T05:20:00.580Z,38.60
2022-11-16T05:23:10.492Z,41.30
2022-11-16T05:25:59.339Z,37.50
2022-11-16T05:29:34.354Z,39.90
2022-11-16T05:33:22.312Z,39.50
2022-11-16T05:36:56.553Z,41.00
2022-11-16T05:40:05.061Z,40.00
2022-11-16T05:50:27.364Z,36.60
2022-11-16T05:54:02.378Z,36.20
2022-11-16T05:56:50.331Z,37.90
2022-11-16T05:59:38.055Z,40.40
2022-11-16T06:02:24.554Z,39.00
2022-11-16T06:06:03.149Z,41.90
2022-11-16T06:12:15.188Z,40.00
2022-11-16T06:18:52.034Z,41.40
2022-11-16T06:22:30.543Z,43.30
2022-11-16T06:36:30.664Z,44.30
2022-11-16T06:50:21.664Z,44.90
2022-11-16T07:01:12.844Z,42.10
2022-11-16T07:04:49.851Z,44.20
2022-11-16T07:20:51.874Z,39.20
2022-11-16T07:29:36.355Z,35.10
2022-11-16T07:32:31.181Z,36.10
2022-11-16T07:35:36.612Z,39.30
2022-11-16T07:38:59.421Z,35.70
2022-11-16T07:41:46.835Z,33.50
2022-11-16T07:44:35.313Z,26.30
2022-11-16T07:48:08.977Z,30.10
2022-11-16T07:51:26.780Z,38.50
2022-11-16T07:54:48.451Z,31.70
2022-11-16T08:02:28.969Z,30.00
2022-11-16T08:14:26.794Z,25.90
2022-11-16T08:16:43.996Z,26.00
2022-11-16T08:19:58.046Z,28.20
2022-11-16T08:24:59.077Z,22.50
2022-11-16T08:44:13.176Z,25.20
2022-11-16T08:47:28.127Z,24.50
2022-11-16T09:05:01.837Z,22.30
2022-11-16T09:08:10.606Z,18.90
2022-11-16T09:11:15.845Z,21.10
2022-11-16T09:14:43.290Z,20.50
2022-11-16T09:18:06.807Z,20.20
2022-11-16T09:22:26.060Z,18.40
2022-11-16T09:31:51.677Z,22.00
2022-11-16T09:41:20.892Z,17.80
2022-11-16T09:45:54.227Z,16.90
2022-11-16T09:49:37.529Z,17.60
2022-11-16T09:57:58.499Z,17.20
2022-11-16T10:00:50.685Z,16.50
2022-11-16T10:04:25.840Z,18.10
2022-11-16T10:15:08.972Z,24.00
2022-11-16T10:22:17.827Z,20.90
2022-11-16T10:26:51.439Z,20.50
2022-11-16T10:34:08.160Z,22.10
2022-11-16T10:37:14.248Z,22.60
2022-11-16T10:44:27.026Z,21.40
2022-11-16T10:47:44.285Z,16.60
2022-11-16T10:50:42.638Z,19.20
2022-11-16T10:56:34.726Z,17.90
2022-11-16T10:59:28.135Z,17.40
2022-11-16T11:02:26.346Z,20.60
2022-11-16T11:05:08.028Z,23.50
2022-11-16T11:07:39.605Z,22.00
2022-11-16T11:10:34.175Z,21.80
2022-11-16T11:13:13.441Z,22.40
2022-11-16T11:15:45.560Z,22.10
2022-11-16T11:18:50.722Z,21.60
2022-11-16T11:21:52.063Z,19.90
2022-11-16T11:24:45.046Z,19.20
2022-11-16T11:27:24.082Z,21.40
2022-11-16T11:29:58.264Z,22.90
2022-11-16T11:32:55.495Z,19.30
2022-11-16T11:36:09.735Z,20.50
2022-11-16T11:39:25.028Z,18.00
2022-11-16T11:42:34.426Z,17.30
2022-11-16T11:45:19.558Z,18.60
2022-11-16T11:48:42.177Z,16.10
2022-11-16T11:51:43.903Z,16.30
2022-11-16T11:54:43.134Z,17.00
2022-11-16T11:57:25.201Z,15.20
2022-11-16T12:04:16.424Z,18.10
2022-11-16T12:07:26.335Z,19.40
2022-11-16T12:10:42.214Z,18.80
2022-11-16T12:14:13.830Z,15.30
2022-11-16T12:17:07.239Z,13.60
2022-11-16T12:19:53.514Z,18.60
2022-11-16T12:23:04.013Z,15.20
2022-11-16T12:26:15.230Z,12.70
2022-11-16T12:29:54.082Z,12.50
2022-11-16T12:33:00.308Z,14.90
2022-11-16T12:36:45.882Z,15.00
2022-11-16T12:39:31.088Z,15.60
2022-11-16T12:42:07.871Z,14.70
2022-11-16T12:45:25.257Z,13.90
2022-11-16T12:48:51.684Z,13.70
2022-11-16T12:51:48.182Z,13.40
2022-11-16T12:55:24.957Z,15.50
2022-11-16T12:58:35.218Z,10.50
2022-11-16T13:01:48.213Z,12.40
2022-11-16T13:04:34.837Z,14.30
2022-11-16T13:07:26.326Z,14.50
2022-11-16T13:10:36.901Z,10.30
2022-11-16T13:14:02.208Z,16.10
2022-11-16T13:17:02.218Z,9.80
2022-11-16T13:19:41.185Z,18.50
2022-11-16T13:22:26.026Z,11.20
2022-11-16T13:25:44.205Z,9.40
2022-11-16T13:28:58.203Z,13.70
2022-11-16T13:31:58.816Z,12.70
2022-11-16T13:34:44.926Z,11.80
2022-11-16T13:37:39.947Z,13.40
2022-11-16T13:40:38.130Z,13.00
2022-11-16T13:43:23.109Z,12.60
2022-11-16T13:46:04.208Z,13.50
2022-11-16T13:48:37.674Z,12.30
2022-11-16T13:51:21.335Z,12.90
2022-11-16T13:54:43.980Z,12.10
2022-11-16T13:57:34.934Z,13.60
2022-11-16T14:00:20.388Z,16.00
2022-11-16T14:03:10.972Z,12.30
2022-11-16T14:05:48.466Z,12.50
2022-11-16T14:08:23.467Z,7.60
2022-11-16T14:10:51.621Z,8.50
2022-11-16T14:13:41.415Z,9.30
2022-11-16T14:16:43.449Z,21.00
2022-11-16T14:20:06.807Z,13.50
2022-11-16T14:24:05.387Z,11.70
2022-11-16T14:26:59.105Z,8.60
2022-11-16T14:30:01.695Z,8.40
2022-11-16T14:32:43.482Z,10.30
2022-11-16T14:35:37.739Z,8.80
2022-11-16T14:38:51.812Z,10.10
2022-11-16T14:41:28.391Z,7.20
2022-11-16T14:44:04.450Z,7.70
2022-11-16T14:46:59.028Z,9.00
2022-11-16T14:49:37.339Z,6.70
2022-11-16T14:52:09.318Z,8.00
2022-11-16T14:55:21.495Z,9.30
2022-11-16T14:58:20.900Z,8.50
2022-11-16T15:00:56.767Z,13.50
2022-11-16T15:03:54.525Z,13.70
2022-11-16T15:06:57.712Z,8.20
2022-11-16T15:10:01.699Z,8.90
2022-11-16T15:12:53.085Z,11.00
2022-11-16T15:15:32.445Z,8.60
2022-11-16T15:18:04.964Z,9.70
2022-11-16T15:20:56.938Z,7.80
2022-11-16T15:24:15.619Z,11.20
2022-11-16T15:27:38.094Z,9.50
2022-11-16T15:30:30.699Z,8.70
2022-11-16T15:33:14.237Z,8.40
2022-11-16T15:35:53.029Z,13.70
2022-11-16T15:38:48.092Z,9.50
2022-11-16T15:41:22.305Z,12.80
2022-11-16T15:44:13.424Z,14.50
2022-11-16T15:46:51.372Z,16.40
2022-11-16T15:49:52.573Z,11.10
2022-11-16T15:53:04.054Z,10.30
2022-11-16T15:55:55.879Z,11.60
2022-11-16T16:00:16.487Z,12.20
2022-11-16T16:01:44.827Z,23.30
2022-11-16T16:04:17.482Z,12.90
2022-11-16T16:07:00.343Z,11.80
2022-11-16T16:09:43.954Z,7.80
2022-11-16T16:12:36.271Z,9.50
2022-11-16T16:15:31.002Z,8.40
2022-11-16T16:18:38.130Z,9.20
2022-11-16T16:21:59.440Z,11.20
2022-11-16T16:25:07.500Z,8.80
2022-11-16T16:27:52.982Z,7.30
2022-11-16T16:30:51.828Z,9.50
2022-11-16T16:33:35.368Z,13.70
2022-11-16T16:36:15.215Z,9.30
2022-11-16T16:38:52.738Z,8.50
2022-11-16T16:41:44.524Z,7.80
2022-11-16T16:44:19.356Z,7.60
2022-11-16T16:47:03.586Z,7.50
2022-11-16T16:49:41.212Z,7.40
2022-11-16T16:52:25.856Z,10.20
2022-11-16T16:54:54.428Z,10.60
2022-11-16T16:57:25.402Z,10.50
2022-11-16T17:02:37.744Z,15.00
2022-11-16T17:05:13.773Z,10.40
2022-11-16T17:07:42.709Z,10.90
2022-11-16T17:10:15.438Z,9.10
2022-11-16T17:12:52.421Z,7.40
2022-11-16T17:16:00.773Z,10.40
2022-11-16T17:18:54.773Z,11.20
2022-11-16T17:21:36.709Z,12.10
2022-11-16T17:24:54.406Z,9.20
2022-11-16T17:30:24.569Z,7.80
2022-11-16T17:32:53.268Z,9.40
2022-11-16T17:35:26.859Z,10.50
2022-11-16T17:38:00.767Z,10.80
2022-11-16T17:40:59.045Z,6.90
2022-11-16T17:43:29.063Z,6.70
2022-11-16T17:46:19.867Z,6.70
2022-11-16T17:48:52.024Z,7.50
2022-11-16T17:51:27.872Z,8.70
2022-11-16T17:54:05.578Z,13.00
2022-11-16T17:56:44.401Z,9.90
2022-11-16T17:59:12.469Z,9.90
2022-11-16T18:01:42.024Z,6.60
2022-11-16T18:04:11.382Z,6.70
2022-11-16T18:06:39.689Z,7.70
2022-11-16T18:09:07.743Z,8.80
2022-11-16T18:11:37.327Z,8.90
2022-11-16T18:14:10.537Z,9.60
2022-11-16T18:16:41.966Z,9.80
2022-11-16T18:19:17.422Z,9.50
2022-11-16T18:21:46.862Z,7.20
2022-11-16T18:24:17.580Z,7.90
2022-11-16T18:26:50.109Z,8.00
2022-11-16T18:29:21.341Z,8.00
2022-11-16T18:31:52.222Z,7.10
2022-11-16T18:34:25.876Z,8.00
2022-11-16T18:37:07.711Z,10.30
2022-11-16T18:39:40.907Z,8.60
2022-11-16T18:42:15.096Z,7.10
2022-11-16T18:44:49.290Z,8.00
2022-11-16T18:47:26.230Z,7.80
2022-11-16T18:49:58.518Z,7.20
2022-11-16T18:52:35.983Z,9.20
2022-11-16T18:55:19.522Z,12.70
2022-11-16T18:58:22.716Z,10.00
2022-11-16T19:01:11.703Z,9.50
2022-11-16T19:03:40.384Z,9.10
2022-11-16T19:06:11.492Z,8.50
2022-11-16T19:08:59.601Z,9.10
2022-11-16T19:11:36.151Z,11.70
2022-11-16T19:14:14.151Z,9.30
2022-11-16T19:16:57.499Z,11.20
2022-11-16T19:19:35.171Z,9.60
2022-11-16T19:22:05.261Z,8.70
2022-11-16T19:24:44.362Z,10.80
2022-11-16T19:27:13.328Z,9.30
2022-11-16T19:29:58.239Z,8.50
2022-11-16T19:33:16.632Z,9.60
2022-11-16T19:35:55.195Z,11.10
2022-11-16T19:38:50.239Z,9.20
2022-11-16T19:41:25.394Z,9.40
2022-11-16T19:44:18.286Z,14.00
2022-11-16T19:47:18.719Z,16.20
2022-11-16T19:49:58.365Z,10.00
2022-11-16T19:52:49.154Z,9.20
2022-11-16T19:55:20.501Z,12.40
2022-11-16T19:58:04.100Z,10.00
2022-11-16T20:00:35.268Z,9.30
2022-11-16T20:03:17.991Z,10.10
2022-11-16T20:06:46.601Z,9.90
2022-11-16T20:09:34.690Z,10.40
2022-11-16T20:12:14.625Z,11.10
2022-11-16T20:14:52.711Z,9.00
2022-11-16T20:17:31.908Z,11.10
2022-11-16T20:20:09.509Z,10.00
2022-11-16T20:22:43.442Z,13.00
2022-11-16T20:25:23.878Z,9.60
2022-11-16T20:28:17.366Z,13.10
2022-11-16T20:34:14.683Z,9.90
2022-11-16T20:37:14.148Z,9.70
2022-11-16T20:40:01.925Z,10.30
2022-11-16T20:42:50.312Z,11.20
2022-11-16T20:45:42.948Z,11.80
2022-11-16T20:48:39.431Z,10.20
2022-11-16T20:51:25.075Z,11.10
2022-11-16T20:54:04.406Z,11.40
2022-11-16T20:57:07.990Z,11.00
2022-11-16T20:59:55.262Z,11.60
2022-11-16T21:02:37.429Z,10.90
2022-11-16T21:06:16.293Z,11.30
2022-11-16T21:08:50.805Z,11.40
2022-11-16T21:12:05.613Z,12.20
2022-11-16T21:14:46.157Z,10.10
2022-11-16T21:17:29.341Z,12.00
2022-11-16T21:20:31.624Z,10.40
2022-11-16T21:23:14.294Z,10.70
2022-11-16T21:26:20.185Z,9.30
2022-11-16T21:29:05.509Z,10.30
2022-11-16T21:31:57.939Z,10.90
2022-11-16T21:34:28.258Z,11.10
2022-11-16T21:37:19.452Z,10.80
2022-11-16T21:39:54.558Z,12.10
2022-11-16T21:47:02.336Z,12.20
2022-11-16T21:50:24.900Z,10.80
2022-11-16T21:53:11.672Z,11.70
2022-11-16T21:59:55.887Z,11.70
2022-11-16T22:02:32.413Z,11.80
2022-11-16T22:05:42.055Z,12.50
2022-11-16T22:08:35.552Z,11.90
2022-11-16T22:11:13.452Z,12.10
2022-11-16T22:14:43.377Z,12.50
2022-11-16T22:17:14.182Z,12.10
2022-11-16T22:19:49.994Z,11.40
2022-11-16T22:22:19.498Z,12.80
2022-11-16T22:25:01.420Z,11.80
2022-11-16T22:27:46.997Z,12.10
2022-11-16T22:31:07.311Z,10.20
2022-11-16T22:34:10.392Z,10.90
2022-11-16T22:37:46.335Z,11.90
2022-11-16T22:40:39.568Z,11.30
2022-11-16T22:43:28.428Z,10.20
2022-11-16T22:46:15.636Z,12.70
2022-11-16T22:49:02.379Z,11.50
2022-11-16T22:51:41.216Z,10.20
2022-11-16T22:54:31.353Z,10.10
2022-11-16T22:57:39.823Z,10.80
2022-11-16T23:01:14.079Z,9.70
2022-11-16T23:03:56.432Z,10.80
2022-11-16T23:06:34.003Z,11.40
2022-11-16T23:09:13.553Z,11.20
2022-11-16T23:12:42.446Z,10.10
2022-11-16T23:15:51.539Z,10.80
2022-11-16T23:18:28.924Z,9.90
2022-11-16T23:21:19.938Z,10.10
2022-11-16T23:24:08.892Z,10.50
2022-11-16T23:27:00.358Z,10.00
2022-11-16T23:29:36.457Z,9.00
2022-11-16T23:32:11.910Z,10.30
2022-11-16T23:34:53.551Z,9.60
2022-11-16T23:37:26.612Z,8.80
2022-11-16T23:40:04.422Z,10.00
2022-11-16T23:43:08.318Z,9.90
2022-11-16T23:45:56.850Z,9.60
2022-11-16T23:49:01.385Z,10.30
2022-11-16T23:51:37.682Z,8.80
2022-11-16T23:54:22.974Z,9.20
2022-11-16T23:57:00.725Z,9.20
2022-11-16T23:59:32.069Z,8.70
